sensor_id;sensor_type;location;lat;lon;timestamp;temperature;humidity
22069;DHT22;13887;57.196;-2.100;2023-07-20T00:00:49;15.48;69.86
22069;DHT22;13887;57.196;-2.100;2023-07-20T00:03:20;15.49;69.80
22069;DHT22;13887;57.196;-2.100;2023-07-20T00:05:52;15.49;69.58
22069;DHT22;13887;57.196;-2.100;2023-07-20T00:08:19;15.46;69.71
22069;DHT22;13887;57.196;-2.100;2023-07-20T00:10:47;15.46;69.45
22069;DHT22;13887;57.196;-2.100;2023-07-20T00:13:15;15.46;69.48
22069;DHT22;13887;57.196;-2.100;2023-07-20T00:15:46;15.51;69.50
22069;DHT22;13887;57.196;-2.100;2023-07-20T00:18:13;15.48;69.44
22069;DHT22;13887;57.196;-2.100;2023-07-20T00:20:41;15.45;69.49
22069;DHT22;13887;57.196;-2.100;2023-07-20T00:23:08;15.44;69.39
22069;DHT22;13887;57.196;-2.100;2023-07-20T00:25:36;15.46;69.33
22069;DHT22;13887;57.196;-2.100;2023-07-20T00:28:03;15.45;69.33
22069;DHT22;13887;57.196;-2.100;2023-07-20T00:30:31;15.45;69.22
22069;DHT22;13887;57.196;-2.100;2023-07-20T00:32:58;15.44;69.20
22069;DHT22;13887;57.196;-2.100;2023-07-20T00:35:25;15.45;69.21
22069;DHT22;13887;57.196;-2.100;2023-07-20T00:37:53;15.44;69.18
22069;DHT22;13887;57.196;-2.100;2023-07-20T00:40:20;15.41;68.92
22069;DHT22;13887;57.196;-2.100;2023-07-20T00:42:47;15.40;69.04
22069;DHT22;13887;57.196;-2.100;2023-07-20T00:45:20;15.41;68.91
22069;DHT22;13887;57.196;-2.100;2023-07-20T00:47:48;15.40;68.81
22069;DHT22;13887;57.196;-2.100;2023-07-20T00:50:16;15.39;68.80
22069;DHT22;13887;57.196;-2.100;2023-07-20T00:52:45;15.39;69.00
22069;DHT22;13887;57.196;-2.100;2023-07-20T00:55:12;15.41;69.00
22069;DHT22;13887;57.196;-2.100;2023-07-20T00:57:40;15.40;68.77
22069;DHT22;13887;57.196;-2.100;2023-07-20T01:00:08;15.39;68.93
22069;DHT22;13887;57.196;-2.100;2023-07-20T01:02:36;15.36;68.97
22069;DHT22;13887;57.196;-2.100;2023-07-20T01:05:05;15.37;68.87
22069;DHT22;13887;57.196;-2.100;2023-07-20T01:07:39;15.36;68.84
22069;DHT22;13887;57.196;-2.100;2023-07-20T01:10:13;15.37;68.67
22069;DHT22;13887;57.196;-2.100;2023-07-20T01:12:52;15.37;68.86
22069;DHT22;13887;57.196;-2.100;2023-07-20T01:15:19;15.36;68.71
22069;DHT22;13887;57.196;-2.100;2023-07-20T01:17:47;15.37;68.64
22069;DHT22;13887;57.196;-2.100;2023-07-20T01:20:16;15.34;68.59
22069;DHT22;13887;57.196;-2.100;2023-07-20T01:28:37;15.36;68.73
22069;DHT22;13887;57.196;-2.100;2023-07-20T01:31:19;15.33;68.69
22069;DHT22;13887;57.196;-2.100;2023-07-20T01:33:52;15.31;68.90
22069;DHT22;13887;57.196;-2.100;2023-07-20T01:36:22;15.33;68.85
22069;DHT22;13887;57.196;-2.100;2023-07-20T01:38:51;15.31;68.82
22069;DHT22;13887;57.196;-2.100;2023-07-20T01:41:19;15.32;68.81
22069;DHT22;13887;57.196;-2.100;2023-07-20T01:43:47;15.32;68.85
22069;DHT22;13887;57.196;-2.100;2023-07-20T01:46:15;15.31;68.81
22069;DHT22;13887;57.196;-2.100;2023-07-20T01:48:43;15.30;68.92
22069;DHT22;13887;57.196;-2.100;2023-07-20T01:51:10;15.30;68.91
22069;DHT22;13887;57.196;-2.100;2023-07-20T01:53:39;15.28;68.90
22069;DHT22;13887;57.196;-2.100;2023-07-20T01:56:06;15.28;68.91
22069;DHT22;13887;57.196;-2.100;2023-07-20T01:58:35;15.26;68.94
22069;DHT22;13887;57.196;-2.100;2023-07-20T02:01:02;15.27;68.91
22069;DHT22;13887;57.196;-2.100;2023-07-20T02:03:33;15.28;68.93
22069;DHT22;13887;57.196;-2.100;2023-07-20T02:06:02;15.24;68.93
22069;DHT22;13887;57.196;-2.100;2023-07-20T02:08:30;15.23;68.93
22069;DHT22;13887;57.196;-2.100;2023-07-20T02:10:58;15.24;68.81
22069;DHT22;13887;57.196;-2.100;2023-07-20T02:13:25;15.22;68.83
22069;DHT22;13887;57.196;-2.100;2023-07-20T02:15:53;15.22;68.92
22069;DHT22;13887;57.196;-2.100;2023-07-20T02:18:21;15.23;68.85
22069;DHT22;13887;57.196;-2.100;2023-07-20T02:20:48;15.21;68.86
22069;DHT22;13887;57.196;-2.100;2023-07-20T02:23:15;15.19;68.87
22069;DHT22;13887;57.196;-2.100;2023-07-20T02:25:43;15.21;68.68
22069;DHT22;13887;57.196;-2.100;2023-07-20T02:28:13;15.19;68.81
22069;DHT22;13887;57.196;-2.100;2023-07-20T02:30:41;15.18;68.84
22069;DHT22;13887;57.196;-2.100;2023-07-20T02:33:09;15.17;68.95
22069;DHT22;13887;57.196;-2.100;2023-07-20T02:35:37;15.17;68.97
22069;DHT22;13887;57.196;-2.100;2023-07-20T02:38:04;15.17;68.95
22069;DHT22;13887;57.196;-2.100;2023-07-20T02:40:32;15.17;69.03
22069;DHT22;13887;57.196;-2.100;2023-07-20T02:42:59;15.18;68.97
22069;DHT22;13887;57.196;-2.100;2023-07-20T02:45:27;15.18;68.76
22069;DHT22;13887;57.196;-2.100;2023-07-20T02:47:54;15.16;68.75
22069;DHT22;13887;57.196;-2.100;2023-07-20T02:50:22;15.16;68.83
22069;DHT22;13887;57.196;-2.100;2023-07-20T02:52:49;15.16;68.75
22069;DHT22;13887;57.196;-2.100;2023-07-20T02:55:17;15.16;68.85
22069;DHT22;13887;57.196;-2.100;2023-07-20T02:57:44;15.17;68.81
22069;DHT22;13887;57.196;-2.100;2023-07-20T03:00:12;15.13;68.80
22069;DHT22;13887;57.196;-2.100;2023-07-20T03:02:43;15.15;68.81
22069;DHT22;13887;57.196;-2.100;2023-07-20T03:05:10;15.14;68.97
22069;DHT22;13887;57.196;-2.100;2023-07-20T03:07:38;15.13;68.97
22069;DHT22;13887;57.196;-2.100;2023-07-20T03:10:06;15.11;68.48
22069;DHT22;13887;57.196;-2.100;2023-07-20T03:12:37;15.09;68.68
22069;DHT22;13887;57.196;-2.100;2023-07-20T03:15:04;15.12;68.62
22069;DHT22;13887;57.196;-2.100;2023-07-20T03:17:32;15.08;68.80
22069;DHT22;13887;57.196;-2.100;2023-07-20T03:20:00;15.08;68.68
22069;DHT22;13887;57.196;-2.100;2023-07-20T03:22:29;15.07;68.65
22069;DHT22;13887;57.196;-2.100;2023-07-20T03:24:56;15.03;68.71
22069;DHT22;13887;57.196;-2.100;2023-07-20T03:27:24;15.00;68.70
22069;DHT22;13887;57.196;-2.100;2023-07-20T03:29:51;15.02;68.72
22069;DHT22;13887;57.196;-2.100;2023-07-20T03:32:18;14.98;68.64
22069;DHT22;13887;57.196;-2.100;2023-07-20T03:34:45;14.97;68.76
22069;DHT22;13887;57.196;-2.100;2023-07-20T03:37:14;14.95;68.91
22069;DHT22;13887;57.196;-2.100;2023-07-20T03:39:43;14.96;68.91
22069;DHT22;13887;57.196;-2.100;2023-07-20T03:42:10;14.89;69.05
22069;DHT22;13887;57.196;-2.100;2023-07-20T03:44:38;14.93;68.68
22069;DHT22;13887;57.196;-2.100;2023-07-20T03:47:07;14.87;68.99
22069;DHT22;13887;57.196;-2.100;2023-07-20T03:49:35;14.92;69.00
22069;DHT22;13887;57.196;-2.100;2023-07-20T03:52:02;14.94;68.98
22069;DHT22;13887;57.196;-2.100;2023-07-20T03:54:32;14.93;69.09
22069;DHT22;13887;57.196;-2.100;2023-07-20T03:56:59;14.93;69.09
22069;DHT22;13887;57.196;-2.100;2023-07-20T03:59:27;14.91;69.22
22069;DHT22;13887;57.196;-2.100;2023-07-20T04:01:54;14.92;69.16
22069;DHT22;13887;57.196;-2.100;2023-07-20T04:04:22;14.92;69.14
22069;DHT22;13887;57.196;-2.100;2023-07-20T04:06:49;14.86;69.40
22069;DHT22;13887;57.196;-2.100;2023-07-20T04:09:20;14.87;69.36
22069;DHT22;13887;57.196;-2.100;2023-07-20T04:11:47;14.89;69.34
22069;DHT22;13887;57.196;-2.100;2023-07-20T04:14:15;14.91;69.29
22069;DHT22;13887;57.196;-2.100;2023-07-20T04:16:42;14.88;69.41
22069;DHT22;13887;57.196;-2.100;2023-07-20T04:19:10;14.84;69.47
22069;DHT22;13887;57.196;-2.100;2023-07-20T04:21:41;14.85;69.55
22069;DHT22;13887;57.196;-2.100;2023-07-20T04:24:08;14.82;69.63
22069;DHT22;13887;57.196;-2.100;2023-07-20T04:26:37;14.79;69.86
22069;DHT22;13887;57.196;-2.100;2023-07-20T04:29:04;14.79;70.06
22069;DHT22;13887;57.196;-2.100;2023-07-20T04:31:40;14.79;70.23
22069;DHT22;13887;57.196;-2.100;2023-07-20T04:34:07;14.79;70.46
22069;DHT22;13887;57.196;-2.100;2023-07-20T04:36:35;14.75;70.65
22069;DHT22;13887;57.196;-2.100;2023-07-20T04:39:04;14.71;71.40
22069;DHT22;13887;57.196;-2.100;2023-07-20T04:41:48;14.70;71.42
22069;DHT22;13887;57.196;-2.100;2023-07-20T04:44:17;14.70;71.73
22069;DHT22;13887;57.196;-2.100;2023-07-20T04:46:44;14.71;71.86
22069;DHT22;13887;57.196;-2.100;2023-07-20T04:49:13;14.68;72.16
22069;DHT22;13887;57.196;-2.100;2023-07-20T04:51:42;14.73;72.04
22069;DHT22;13887;57.196;-2.100;2023-07-20T04:54:10;14.73;72.28
22069;DHT22;13887;57.196;-2.100;2023-07-20T04:56:38;14.68;72.55
22069;DHT22;13887;57.196;-2.100;2023-07-20T04:59:08;14.67;72.86
22069;DHT22;13887;57.196;-2.100;2023-07-20T05:01:35;14.69;72.73
22069;DHT22;13887;57.196;-2.100;2023-07-20T05:04:03;14.68;72.77
22069;DHT22;13887;57.196;-2.100;2023-07-20T05:06:30;14.69;72.93
22069;DHT22;13887;57.196;-2.100;2023-07-20T05:08:59;14.68;73.15
22069;DHT22;13887;57.196;-2.100;2023-07-20T05:11:27;14.70;73.07
22069;DHT22;13887;57.196;-2.100;2023-07-20T05:13:54;14.70;73.15
22069;DHT22;13887;57.196;-2.100;2023-07-20T05:16:22;14.71;73.12
22069;DHT22;13887;57.196;-2.100;2023-07-20T05:18:50;14.70;73.08
22069;DHT22;13887;57.196;-2.100;2023-07-20T05:21:18;14.72;73.06
22069;DHT22;13887;57.196;-2.100;2023-07-20T05:23:46;14.70;73.04
22069;DHT22;13887;57.196;-2.100;2023-07-20T05:26:14;14.70;72.97
22069;DHT22;13887;57.196;-2.100;2023-07-20T05:28:41;14.73;72.93
22069;DHT22;13887;57.196;-2.100;2023-07-20T05:31:08;14.71;73.06
22069;DHT22;13887;57.196;-2.100;2023-07-20T05:33:36;14.71;73.20
22069;DHT22;13887;57.196;-2.100;2023-07-20T05:36:03;14.69;73.35
22069;DHT22;13887;57.196;-2.100;2023-07-20T05:38:30;14.71;73.27
22069;DHT22;13887;57.196;-2.100;2023-07-20T05:41:00;14.70;73.35
22069;DHT22;13887;57.196;-2.100;2023-07-20T05:43:30;14.70;73.37
22069;DHT22;13887;57.196;-2.100;2023-07-20T05:45:58;14.68;73.48
22069;DHT22;13887;57.196;-2.100;2023-07-20T05:48:25;14.69;73.51
22069;DHT22;13887;57.196;-2.100;2023-07-20T05:50:52;14.70;73.39
22069;DHT22;13887;57.196;-2.100;2023-07-20T05:53:20;14.69;73.41
22069;DHT22;13887;57.196;-2.100;2023-07-20T05:55:52;14.64;73.63
22069;DHT22;13887;57.196;-2.100;2023-07-20T05:58:20;14.64;73.64
22069;DHT22;13887;57.196;-2.100;2023-07-20T06:00:48;14.66;73.67
22069;DHT22;13887;57.196;-2.100;2023-07-20T06:03:16;14.67;73.64
22069;DHT22;13887;57.196;-2.100;2023-07-20T06:05:45;14.67;73.60
22069;DHT22;13887;57.196;-2.100;2023-07-20T06:08:12;14.64;73.85
22069;DHT22;13887;57.196;-2.100;2023-07-20T06:10:40;14.64;73.74
22069;DHT22;13887;57.196;-2.100;2023-07-20T06:13:11;14.65;73.90
22069;DHT22;13887;57.196;-2.100;2023-07-20T06:15:39;14.66;74.02
22069;DHT22;13887;57.196;-2.100;2023-07-20T06:18:08;14.68;73.96
22069;DHT22;13887;57.196;-2.100;2023-07-20T06:20:35;14.67;73.79
22069;DHT22;13887;57.196;-2.100;2023-07-20T06:23:03;14.68;73.75
22069;DHT22;13887;57.196;-2.100;2023-07-20T06:25:31;14.71;73.54
22069;DHT22;13887;57.196;-2.100;2023-07-20T06:27:58;14.66;73.73
22069;DHT22;13887;57.196;-2.100;2023-07-20T06:30:26;14.65;73.76
22069;DHT22;13887;57.196;-2.100;2023-07-20T06:32:53;14.66;73.76
22069;DHT22;13887;57.196;-2.100;2023-07-20T06:35:20;14.65;73.82
22069;DHT22;13887;57.196;-2.100;2023-07-20T06:37:48;14.67;73.86
22069;DHT22;13887;57.196;-2.100;2023-07-20T06:40:15;14.69;73.95
22069;DHT22;13887;57.196;-2.100;2023-07-20T06:42:45;14.72;73.79
22069;DHT22;13887;57.196;-2.100;2023-07-20T06:45:16;14.74;73.49
22069;DHT22;13887;57.196;-2.100;2023-07-20T06:47:43;14.71;73.38
22069;DHT22;13887;57.196;-2.100;2023-07-20T06:50:10;14.70;73.57
22069;DHT22;13887;57.196;-2.100;2023-07-20T06:52:43;14.73;73.48
22069;DHT22;13887;57.196;-2.100;2023-07-20T06:55:11;14.74;73.35
22069;DHT22;13887;57.196;-2.100;2023-07-20T06:57:38;14.78;73.25
22069;DHT22;13887;57.196;-2.100;2023-07-20T07:00:06;14.81;72.95
22069;DHT22;13887;57.196;-2.100;2023-07-20T07:02:34;14.79;72.80
22069;DHT22;13887;57.196;-2.100;2023-07-20T07:05:02;14.80;72.83
22069;DHT22;13887;57.196;-2.100;2023-07-20T07:07:47;14.81;72.58
22069;DHT22;13887;57.196;-2.100;2023-07-20T07:10:14;14.78;72.48
22069;DHT22;13887;57.196;-2.100;2023-07-20T07:12:41;14.78;72.35
22069;DHT22;13887;57.196;-2.100;2023-07-20T07:15:09;14.78;72.15
22069;DHT22;13887;57.196;-2.100;2023-07-20T07:17:37;14.74;72.18
22069;DHT22;13887;57.196;-2.100;2023-07-20T07:20:06;14.75;72.16
22069;DHT22;13887;57.196;-2.100;2023-07-20T07:22:37;14.78;71.93
22069;DHT22;13887;57.196;-2.100;2023-07-20T07:25:05;14.81;71.89
22069;DHT22;13887;57.196;-2.100;2023-07-20T07:27:33;14.81;71.80
22069;DHT22;13887;57.196;-2.100;2023-07-20T07:30:00;14.81;71.51
22069;DHT22;13887;57.196;-2.100;2023-07-20T07:32:28;14.74;71.56
22069;DHT22;13887;57.196;-2.100;2023-07-20T07:34:55;14.75;71.45
22069;DHT22;13887;57.196;-2.100;2023-07-20T07:37:23;14.78;71.42
22069;DHT22;13887;57.196;-2.100;2023-07-20T07:39:50;14.78;71.38
22069;DHT22;13887;57.196;-2.100;2023-07-20T07:42:17;14.80;71.26
22069;DHT22;13887;57.196;-2.100;2023-07-20T07:44:45;14.69;71.65
22069;DHT22;13887;57.196;-2.100;2023-07-20T07:47:13;14.81;71.38
22069;DHT22;13887;57.196;-2.100;2023-07-20T07:49:41;14.82;70.90
22069;DHT22;13887;57.196;-2.100;2023-07-20T07:52:13;14.85;70.98
22069;DHT22;13887;57.196;-2.100;2023-07-20T07:54:41;14.81;70.94
22069;DHT22;13887;57.196;-2.100;2023-07-20T07:57:08;14.82;70.81
22069;DHT22;13887;57.196;-2.100;2023-07-20T07:59:36;14.83;70.76
22069;DHT22;13887;57.196;-2.100;2023-07-20T08:02:05;14.82;70.62
22069;DHT22;13887;57.196;-2.100;2023-07-20T08:04:33;14.83;70.51
22069;DHT22;13887;57.196;-2.100;2023-07-20T08:07:04;14.82;70.74
22069;DHT22;13887;57.196;-2.100;2023-07-20T08:09:33;14.80;70.61
22069;DHT22;13887;57.196;-2.100;2023-07-20T08:12:00;14.82;70.48
22069;DHT22;13887;57.196;-2.100;2023-07-20T08:14:27;14.83;70.68
22069;DHT22;13887;57.196;-2.100;2023-07-20T08:16:55;14.88;70.69
22069;DHT22;13887;57.196;-2.100;2023-07-20T08:19:23;14.95;70.57
22069;DHT22;13887;57.196;-2.100;2023-07-20T08:21:51;14.96;70.17
22069;DHT22;13887;57.196;-2.100;2023-07-20T08:24:18;14.96;70.42
22069;DHT22;13887;57.196;-2.100;2023-07-20T08:26:46;14.97;70.22
22069;DHT22;13887;57.196;-2.100;2023-07-20T08:29:13;14.97;70.46
22069;DHT22;13887;57.196;-2.100;2023-07-20T08:31:41;14.99;70.60
22069;DHT22;13887;57.196;-2.100;2023-07-20T08:34:08;14.99;70.83
22069;DHT22;13887;57.196;-2.100;2023-07-20T08:36:56;14.99;70.85
22069;DHT22;13887;57.196;-2.100;2023-07-20T08:39:25;14.99;70.79
22069;DHT22;13887;57.196;-2.100;2023-07-20T08:41:54;15.02;70.79
22069;DHT22;13887;57.196;-2.100;2023-07-20T08:44:24;15.01;70.74
22069;DHT22;13887;57.196;-2.100;2023-07-20T08:46:52;15.01;70.79
22069;DHT22;13887;57.196;-2.100;2023-07-20T08:49:20;15.01;70.80
22069;DHT22;13887;57.196;-2.100;2023-07-20T08:51:48;14.99;70.87
22069;DHT22;13887;57.196;-2.100;2023-07-20T08:54:16;14.98;71.12
22069;DHT22;13887;57.196;-2.100;2023-07-20T08:56:45;14.96;71.45
22069;DHT22;13887;57.196;-2.100;2023-07-20T08:59:16;14.95;71.43
22069;DHT22;13887;57.196;-2.100;2023-07-20T09:01:45;14.89;71.89
22069;DHT22;13887;57.196;-2.100;2023-07-20T09:04:13;14.85;72.07
22069;DHT22;13887;57.196;-2.100;2023-07-20T09:06:40;14.85;72.54
22069;DHT22;13887;57.196;-2.100;2023-07-20T09:09:12;14.84;73.38
22069;DHT22;13887;57.196;-2.100;2023-07-20T09:11:40;14.82;73.81
22069;DHT22;13887;57.196;-2.100;2023-07-20T09:14:09;14.79;73.98
22069;DHT22;13887;57.196;-2.100;2023-07-20T09:19:17;14.77;74.51
22069;DHT22;13887;57.196;-2.100;2023-07-20T09:21:48;14.74;74.86
22069;DHT22;13887;57.196;-2.100;2023-07-20T09:24:18;14.74;75.00
22069;DHT22;13887;57.196;-2.100;2023-07-20T09:26:47;14.77;74.76
22069;DHT22;13887;57.196;-2.100;2023-07-20T09:29:18;14.74;74.86
22069;DHT22;13887;57.196;-2.100;2023-07-20T09:32:04;14.74;74.77
22069;DHT22;13887;57.196;-2.100;2023-07-20T09:34:32;14.75;74.86
22069;DHT22;13887;57.196;-2.100;2023-07-20T09:37:03;14.75;75.08
22069;DHT22;13887;57.196;-2.100;2023-07-20T09:39:32;14.75;75.33
22069;DHT22;13887;57.196;-2.100;2023-07-20T09:42:03;14.77;75.38
22069;DHT22;13887;57.196;-2.100;2023-07-20T09:44:35;14.82;75.12
22069;DHT22;13887;57.196;-2.100;2023-07-20T09:47:05;14.85;75.22
22069;DHT22;13887;57.196;-2.100;2023-07-20T09:49:39;14.87;75.27
22069;DHT22;13887;57.196;-2.100;2023-07-20T09:52:11;14.94;75.36
22069;DHT22;13887;57.196;-2.100;2023-07-20T09:54:39;14.98;75.03
22069;DHT22;13887;57.196;-2.100;2023-07-20T09:57:07;14.99;74.99
22069;DHT22;13887;57.196;-2.100;2023-07-20T09:59:36;15.01;74.80
22069;DHT22;13887;57.196;-2.100;2023-07-20T10:02:10;15.04;74.72
22069;DHT22;13887;57.196;-2.100;2023-07-20T10:04:41;15.06;75.17
22069;DHT22;13887;57.196;-2.100;2023-07-20T10:07:11;15.06;75.51
22069;DHT22;13887;57.196;-2.100;2023-07-20T10:09:40;15.06;75.25
22069;DHT22;13887;57.196;-2.100;2023-07-20T10:12:09;15.07;75.21
22069;DHT22;13887;57.196;-2.100;2023-07-20T10:17:37;15.12;74.52
22069;DHT22;13887;57.196;-2.100;2023-07-20T10:20:09;15.11;74.79
22069;DHT22;13887;57.196;-2.100;2023-07-20T10:22:38;15.09;74.99
22069;DHT22;13887;57.196;-2.100;2023-07-20T10:25:09;15.10;74.99
22069;DHT22;13887;57.196;-2.100;2023-07-20T10:27:37;15.08;75.20
22069;DHT22;13887;57.196;-2.100;2023-07-20T10:30:07;15.08;74.98
22069;DHT22;13887;57.196;-2.100;2023-07-20T10:32:37;15.06;74.60
22069;DHT22;13887;57.196;-2.100;2023-07-20T10:35:12;15.03;75.23
22069;DHT22;13887;57.196;-2.100;2023-07-20T10:37:54;14.96;76.43
22069;DHT22;13887;57.196;-2.100;2023-07-20T10:40:27;14.92;76.79
22069;DHT22;13887;57.196;-2.100;2023-07-20T10:43:07;14.89;76.99
22069;DHT22;13887;57.196;-2.100;2023-07-20T10:45:52;14.88;77.40
22069;DHT22;13887;57.196;-2.100;2023-07-20T10:48:24;14.89;77.31
22069;DHT22;13887;57.196;-2.100;2023-07-20T10:51:13;14.86;78.75
22069;DHT22;13887;57.196;-2.100;2023-07-20T10:53:43;14.81;78.89
22069;DHT22;13887;57.196;-2.100;2023-07-20T10:56:12;14.86;78.30
22069;DHT22;13887;57.196;-2.100;2023-07-20T10:58:41;14.85;78.30
22069;DHT22;13887;57.196;-2.100;2023-07-20T11:01:13;14.88;77.67
22069;DHT22;13887;57.196;-2.100;2023-07-20T11:03:50;14.86;78.79
22069;DHT22;13887;57.196;-2.100;2023-07-20T11:09:04;14.91;78.85
22069;DHT22;13887;57.196;-2.100;2023-07-20T11:11:37;14.94;78.75
22069;DHT22;13887;57.196;-2.100;2023-07-20T11:14:23;14.97;78.34
22069;DHT22;13887;57.196;-2.100;2023-07-20T11:16:51;15.01;78.85
22069;DHT22;13887;57.196;-2.100;2023-07-20T11:19:24;15.00;78.77
22069;DHT22;13887;57.196;-2.100;2023-07-20T11:21:56;14.98;78.65
22069;DHT22;13887;57.196;-2.100;2023-07-20T11:24:30;14.97;78.14
22069;DHT22;13887;57.196;-2.100;2023-07-20T11:26:59;15.01;78.22
22069;DHT22;13887;57.196;-2.100;2023-07-20T11:29:28;15.00;78.24
22069;DHT22;13887;57.196;-2.100;2023-07-20T11:32:02;14.98;78.18
22069;DHT22;13887;57.196;-2.100;2023-07-20T11:34:33;14.97;77.85
22069;DHT22;13887;57.196;-2.100;2023-07-20T11:37:01;14.96;77.42
22069;DHT22;13887;57.196;-2.100;2023-07-20T11:39:33;14.97;77.31
22069;DHT22;13887;57.196;-2.100;2023-07-20T11:42:00;15.00;77.49
22069;DHT22;13887;57.196;-2.100;2023-07-20T11:44:29;14.99;77.65
22069;DHT22;13887;57.196;-2.100;2023-07-20T11:49:39;14.95;77.44
22069;DHT22;13887;57.196;-2.100;2023-07-20T11:52:09;14.95;77.26
22069;DHT22;13887;57.196;-2.100;2023-07-20T11:54:39;14.96;76.99
22069;DHT22;13887;57.196;-2.100;2023-07-20T11:57:19;14.92;77.38
22069;DHT22;13887;57.196;-2.100;2023-07-20T11:59:58;14.89;77.23
22069;DHT22;13887;57.196;-2.100;2023-07-20T12:02:32;14.88;76.88
22069;DHT22;13887;57.196;-2.100;2023-07-20T12:05:00;14.86;77.46
22069;DHT22;13887;57.196;-2.100;2023-07-20T12:07:35;14.87;77.44
22069;DHT22;13887;57.196;-2.100;2023-07-20T12:10:08;14.86;77.69
22069;DHT22;13887;57.196;-2.100;2023-07-20T12:12:40;14.83;77.85
22069;DHT22;13887;57.196;-2.100;2023-07-20T12:15:15;14.83;77.82
22069;DHT22;13887;57.196;-2.100;2023-07-20T12:17:50;14.86;77.37
22069;DHT22;13887;57.196;-2.100;2023-07-20T12:20:44;14.89;77.47
22069;DHT22;13887;57.196;-2.100;2023-07-20T12:23:13;14.88;77.53
22069;DHT22;13887;57.196;-2.100;2023-07-20T12:25:43;14.92;77.11
22069;DHT22;13887;57.196;-2.100;2023-07-20T12:28:12;14.93;76.91
22069;DHT22;13887;57.196;-2.100;2023-07-20T12:30:43;14.95;77.34
22069;DHT22;13887;57.196;-2.100;2023-07-20T12:33:12;14.97;76.34
22069;DHT22;13887;57.196;-2.100;2023-07-20T12:35:43;14.97;77.05
22069;DHT22;13887;57.196;-2.100;2023-07-20T12:38:11;14.98;76.47
22069;DHT22;13887;57.196;-2.100;2023-07-20T12:40:38;15.00;76.16
22069;DHT22;13887;57.196;-2.100;2023-07-20T12:43:10;15.06;76.21
22069;DHT22;13887;57.196;-2.100;2023-07-20T12:45:38;15.09;76.06
22069;DHT22;13887;57.196;-2.100;2023-07-20T12:48:05;15.14;75.91
22069;DHT22;13887;57.196;-2.100;2023-07-20T12:50:33;15.16;75.83
22069;DHT22;13887;57.196;-2.100;2023-07-20T12:53:00;15.23;75.81
22069;DHT22;13887;57.196;-2.100;2023-07-20T12:55:31;15.25;75.55
22069;DHT22;13887;57.196;-2.100;2023-07-20T12:57:59;15.28;75.42
22069;DHT22;13887;57.196;-2.100;2023-07-20T13:00:27;15.27;75.21
22069;DHT22;13887;57.196;-2.100;2023-07-20T13:02:55;15.28;75.26
22069;DHT22;13887;57.196;-2.100;2023-07-20T13:05:26;15.32;75.06
22069;DHT22;13887;57.196;-2.100;2023-07-20T13:07:56;15.32;74.86
22069;DHT22;13887;57.196;-2.100;2023-07-20T13:10:27;15.32;74.82
22069;DHT22;13887;57.196;-2.100;2023-07-20T13:12:55;15.32;74.20
22069;DHT22;13887;57.196;-2.100;2023-07-20T13:15:29;15.34;74.31
22069;DHT22;13887;57.196;-2.100;2023-07-20T13:17:59;15.36;74.39
22069;DHT22;13887;57.196;-2.100;2023-07-20T13:20:27;15.36;74.58
22069;DHT22;13887;57.196;-2.100;2023-07-20T13:22:55;15.34;74.52
22069;DHT22;13887;57.196;-2.100;2023-07-20T13:25:22;15.31;75.31
22069;DHT22;13887;57.196;-2.100;2023-07-20T13:27:50;15.28;74.89
22069;DHT22;13887;57.196;-2.100;2023-07-20T13:30:17;15.27;75.38
22069;DHT22;13887;57.196;-2.100;2023-07-20T13:32:45;15.27;75.47
22069;DHT22;13887;57.196;-2.100;2023-07-20T13:35:13;15.28;75.54
22069;DHT22;13887;57.196;-2.100;2023-07-20T13:37:41;15.26;75.66
22069;DHT22;13887;57.196;-2.100;2023-07-20T13:40:09;15.21;75.92
22069;DHT22;13887;57.196;-2.100;2023-07-20T13:42:40;15.19;76.22
22069;DHT22;13887;57.196;-2.100;2023-07-20T13:45:08;15.19;76.60
22069;DHT22;13887;57.196;-2.100;2023-07-20T13:47:35;15.22;76.37
22069;DHT22;13887;57.196;-2.100;2023-07-20T13:50:04;15.28;76.36
22069;DHT22;13887;57.196;-2.100;2023-07-20T13:52:32;15.27;76.44
22069;DHT22;13887;57.196;-2.100;2023-07-20T13:55:03;15.29;77.22
22069;DHT22;13887;57.196;-2.100;2023-07-20T13:57:32;15.33;77.17
22069;DHT22;13887;57.196;-2.100;2023-07-20T14:00:03;15.36;77.02
22069;DHT22;13887;57.196;-2.100;2023-07-20T14:02:38;15.38;77.40
22069;DHT22;13887;57.196;-2.100;2023-07-20T14:05:09;15.40;77.45
22069;DHT22;13887;57.196;-2.100;2023-07-20T14:07:40;15.40;77.39
22069;DHT22;13887;57.196;-2.100;2023-07-20T14:10:07;15.43;77.60
22069;DHT22;13887;57.196;-2.100;2023-07-20T14:12:38;15.43;77.66
22069;DHT22;13887;57.196;-2.100;2023-07-20T14:15:06;15.43;77.81
22069;DHT22;13887;57.196;-2.100;2023-07-20T14:17:35;15.46;77.60
22069;DHT22;13887;57.196;-2.100;2023-07-20T14:20:05;15.44;77.43
22069;DHT22;13887;57.196;-2.100;2023-07-20T14:22:48;15.44;77.44
22069;DHT22;13887;57.196;-2.100;2023-07-20T14:25:17;15.44;77.31
22069;DHT22;13887;57.196;-2.100;2023-07-20T14:27:46;15.47;77.40
22069;DHT22;13887;57.196;-2.100;2023-07-20T14:30:14;15.49;77.31
22069;DHT22;13887;57.196;-2.100;2023-07-20T14:32:41;15.52;77.34
22069;DHT22;13887;57.196;-2.100;2023-07-20T14:35:09;15.52;77.01
22069;DHT22;13887;57.196;-2.100;2023-07-20T14:37:37;15.54;76.83
22069;DHT22;13887;57.196;-2.100;2023-07-20T14:40:05;15.53;76.73
22069;DHT22;13887;57.196;-2.100;2023-07-20T14:42:35;15.52;77.26
22069;DHT22;13887;57.196;-2.100;2023-07-20T14:45:03;15.53;77.07
22069;DHT22;13887;57.196;-2.100;2023-07-20T14:47:32;15.53;77.15
22069;DHT22;13887;57.196;-2.100;2023-07-20T14:50:02;15.56;76.89
22069;DHT22;13887;57.196;-2.100;2023-07-20T14:52:30;15.58;76.76
22069;DHT22;13887;57.196;-2.100;2023-07-20T14:54:58;15.58;76.82
22069;DHT22;13887;57.196;-2.100;2023-07-20T14:57:25;15.58;77.14
22069;DHT22;13887;57.196;-2.100;2023-07-20T14:59:52;15.60;76.72
22069;DHT22;13887;57.196;-2.100;2023-07-20T15:02:20;15.63;76.36
22069;DHT22;13887;57.196;-2.100;2023-07-20T15:04:48;15.65;76.53
22069;DHT22;13887;57.196;-2.100;2023-07-20T15:07:21;15.65;76.44
22069;DHT22;13887;57.196;-2.100;2023-07-20T15:09:49;15.63;76.73
22069;DHT22;13887;57.196;-2.100;2023-07-20T15:12:17;15.66;76.87
22069;DHT22;13887;57.196;-2.100;2023-07-20T15:15:03;15.65;77.31
22069;DHT22;13887;57.196;-2.100;2023-07-20T15:17:36;15.61;77.69
22069;DHT22;13887;57.196;-2.100;2023-07-20T15:20:09;15.61;78.18
22069;DHT22;13887;57.196;-2.100;2023-07-20T15:22:37;15.62;77.63
22069;DHT22;13887;57.196;-2.100;2023-07-20T15:25:07;15.63;77.56
22069;DHT22;13887;57.196;-2.100;2023-07-20T15:27:36;15.65;77.72
22069;DHT22;13887;57.196;-2.100;2023-07-20T15:30:04;15.61;78.49
22069;DHT22;13887;57.196;-2.100;2023-07-20T15:32:32;15.56;78.75
22069;DHT22;13887;57.196;-2.100;2023-07-20T15:35:05;15.53;79.45
22069;DHT22;13887;57.196;-2.100;2023-07-20T15:37:33;15.49;79.62
22069;DHT22;13887;57.196;-2.100;2023-07-20T15:40:00;15.51;79.61
22069;DHT22;13887;57.196;-2.100;2023-07-20T15:42:31;15.46;79.47
22069;DHT22;13887;57.196;-2.100;2023-07-20T15:45:03;15.43;79.37